Time;durP1;ratioP1;P1;durP2;ratioP2;P2;SDS_P1;SDS_P2;PMS_P1;PMS_P2;Temp;Humidity;BMP_temperature;BMP_pressure;BME280_temperature;BME280_humidity;BME280_pressure;Samples;Min_cycle;Max_cycle;Signal;HPM_P1;HPM_P2
2021/05/01 00:01:18;;;;;;;6.10;5.50;;;9.20;99.90;;;;;;5059482;28;20239;-77
2021/05/01 00:03:44;;;;;;;6.63;5.97;;;9.10;99.90;;;;;;5050693;28;20250;-77
2021/05/01 00:06:11;;;;;;;5.53;5.10;;;9.20;99.90;;;;;;5050779;28;20208;-77
2021/05/01 00:08:37;;;;;;;7.17;5.17;;;9.30;99.90;;;;;;5050952;28;20208;-77
2021/05/01 00:11:03;;;;;;;6.37;5.77;;;9.00;99.90;;;;;;5050297;28;20589;-76
2021/05/01 00:13:32;;;;;;;5.97;5.23;;;9.10;99.90;;;;;;5050978;28;20204;-76
2021/05/01 00:15:59;;;;;;;5.83;5.33;;;9.10;99.90;;;;;;5049801;28;20208;-76
2021/05/01 00:18:25;;;;;;;6.03;5.50;;;9.00;99.90;;;;;;5050621;28;20236;-76
2021/05/01 00:20:52;;;;;;;5.73;5.00;;;9.10;99.90;;;;;;5050564;28;20282;-77
2021/05/01 00:23:18;;;;;;;5.93;5.33;;;9.00;99.90;;;;;;5050562;28;20216;-77
2021/05/01 00:25:45;;;;;;;6.17;5.43;;;9.00;99.90;;;;;;5050532;28;20215;-77
2021/05/01 00:28:11;;;;;;;7.63;5.73;;;9.00;99.90;;;;;;5050395;28;20254;-76
2021/05/01 00:30:39;;;;;;;6.13;5.67;;;9.00;99.90;;;;;;5050574;28;20251;-76
2021/05/01 00:33:06;;;;;;;5.73;5.23;;;9.00;99.90;;;;;;5050533;28;20208;-76
2021/05/01 00:35:32;;;;;;;6.40;5.80;;;9.00;99.90;;;;;;5050188;28;20216;-77
2021/05/01 00:37:58;;;;;;;7.70;7.00;;;9.00;99.90;;;;;;5050325;28;20223;-77
2021/05/01 00:40:25;;;;;;;6.90;6.43;;;9.00;99.90;;;;;;5050479;28;20219;-77
2021/05/01 00:42:51;;;;;;;8.83;7.83;;;9.00;99.90;;;;;;5050277;28;20228;-77
2021/05/01 00:45:17;;;;;;;8.80;7.73;;;9.00;99.90;;;;;;5050006;28;20573;-77
2021/05/01 00:47:44;;;;;;;10.17;8.87;;;9.00;99.90;;;;;;5049879;28;20212;-75
2021/05/01 00:50:12;;;;;;;9.47;8.57;;;9.00;99.90;;;;;;5050093;28;20258;-80
2021/05/01 00:52:38;;;;;;;10.03;9.03;;;9.00;99.90;;;;;;5049934;28;20218;-81
2021/05/01 00:55:06;;;;;;;9.53;8.50;;;9.00;99.90;;;;;;5049764;28;20243;-81
2021/05/01 00:57:33;;;;;;;9.57;8.67;;;9.00;99.90;;;;;;5050528;28;20219;-81
2021/05/01 01:00:00;;;;;;;8.23;7.43;;;9.10;99.90;;;;;;5050158;28;20839;-81
2021/05/01 01:02:28;;;;;;;7.77;7.17;;;9.10;99.90;;;;;;5050413;28;20235;-82
2021/05/01 01:04:55;;;;;;;7.50;6.90;;;9.10;99.90;;;;;;5049958;28;20208;-74
2021/05/01 01:07:22;;;;;;;7.37;6.47;;;9.10;99.90;;;;;;5049471;28;20207;-75
2021/05/01 01:09:49;;;;;;;7.50;6.60;;;9.00;99.90;;;;;;5049579;28;20210;-74
2021/05/01 01:12:16;;;;;;;8.33;6.93;;;9.00;99.90;;;;;;5049465;28;20211;-73
2021/05/01 01:14:42;;;;;;;7.07;6.40;;;9.00;99.90;;;;;;5049531;28;20574;-75
2021/05/01 01:17:08;;;;;;;6.63;6.03;;;9.00;99.90;;;;;;5049080;28;20289;-75
2021/05/01 01:19:37;;;;;;;7.03;6.30;;;9.00;99.90;;;;;;5049452;28;20208;-75
2021/05/01 01:22:10;;;;;;;7.13;6.40;;;9.00;99.90;;;;;;5048793;28;20728;-74
2021/05/01 01:24:36;;;;;;;7.07;6.37;;;9.00;99.90;;;;;;5049406;28;20207;-74
2021/05/01 01:27:03;;;;;;;7.90;6.43;;;9.00;99.90;;;;;;5048933;28;20200;-74
2021/05/01 01:29:29;;;;;;;7.40;6.70;;;8.90;99.90;;;;;;5049443;28;20222;-76
2021/05/01 01:31:57;;;;;;;7.70;6.53;;;8.90;99.90;;;;;;5049431;28;20208;-77
2021/05/01 01:34:23;;;;;;;8.07;6.63;;;8.90;99.90;;;;;;5049074;28;20208;-75
2021/05/01 01:36:49;;;;;;;7.07;6.30;;;8.90;99.90;;;;;;5049136;28;20212;-76
2021/05/01 01:39:16;;;;;;;8.17;6.77;;;9.00;99.90;;;;;;5049115;28;20212;-76
2021/05/01 01:41:42;;;;;;;7.47;6.77;;;9.00;99.90;;;;;;5049042;28;20724;-76
2021/05/01 01:44:08;;;;;;;7.67;6.97;;;9.00;99.90;;;;;;5048992;28;20200;-76
2021/05/01 01:46:34;;;;;;;8.50;7.70;;;9.00;99.90;;;;;;5049103;28;20204;-76
2021/05/01 01:49:00;;;;;;;8.30;7.40;;;9.00;99.90;;;;;;5049015;28;20282;-75
2021/05/01 01:51:26;;;;;;;8.20;7.40;;;9.00;99.90;;;;;;5048802;28;20663;-76
2021/05/01 01:53:52;;;;;;;8.87;7.97;;;8.90;99.90;;;;;;5049063;28;20265;-76
2021/05/01 01:56:20;;;;;;;10.30;8.70;;;9.00;99.90;;;;;;5048621;28;20269;-76
2021/05/01 01:58:46;;;;;;;9.53;8.53;;;9.00;99.90;;;;;;5049084;28;20212;-77
2021/05/01 02:01:12;;;;;;;8.87;8.00;;;9.00;99.90;;;;;;5048300;28;20809;-77
2021/05/01 02:03:38;;;;;;;9.40;8.50;;;9.00;99.90;;;;;;5048997;28;20390;-75
2021/05/01 02:06:05;;;;;;;11.20;8.80;;;9.00;99.90;;;;;;5047969;28;20734;-74
2021/05/01 02:08:31;;;;;;;9.17;8.37;;;9.00;99.90;;;;;;5048539;28;20215;-74
2021/05/01 02:10:57;;;;;;;11.73;8.60;;;8.90;99.90;;;;;;5048178;28;20686;-79
2021/05/01 02:13:24;;;;;;;9.13;8.00;;;8.90;99.90;;;;;;5048808;28;20281;-78
2021/05/01 02:15:50;;;;;;;9.33;8.20;;;8.90;99.90;;;;;;5048247;28;20577;-78
2021/05/01 02:18:17;;;;;;;9.07;8.17;;;8.90;99.90;;;;;;5048353;28;20254;-78
2021/05/01 02:20:43;;;;;;;9.50;8.00;;;8.90;99.90;;;;;;5048665;28;20243;-79
2021/05/01 02:23:09;;;;;;;12.13;7.90;;;8.90;99.90;;;;;;5048601;28;20267;-78
2021/05/01 02:25:37;;;;;;;8.53;7.27;;;8.80;99.90;;;;;;5048626;28;20207;-78
2021/05/01 02:28:03;;;;;;;8.60;7.27;;;8.80;99.90;;;;;;5048534;28;20204;-78
2021/05/01 02:30:30;;;;;;;8.53;7.63;;;8.80;99.90;;;;;;5048552;28;20212;-78
2021/05/01 02:32:57;;;;;;;9.80;7.80;;;8.70;99.90;;;;;;5048715;28;20607;-78
2021/05/01 02:35:25;;;;;;;9.17;7.77;;;8.80;99.90;;;;;;5047997;28;20208;-78
2021/05/01 02:37:52;;;;;;;8.60;7.80;;;8.70;99.90;;;;;;5048798;28;20219;-78
2021/05/01 02:40:20;;;;;;;9.43;8.37;;;8.70;99.90;;;;;;5054504;28;20204;-78
2021/05/01 02:42:47;;;;;;;8.50;7.67;;;8.70;99.90;;;;;;5054882;28;20250;-78
2021/05/01 02:45:15;;;;;;;9.23;7.70;;;8.70;99.90;;;;;;5054885;28;20208;-78
2021/05/01 02:47:42;;;;;;;8.63;7.67;;;8.70;99.90;;;;;;5054720;28;20614;-78
2021/05/01 02:50:11;;;;;;;8.27;7.50;;;8.70;99.90;;;;;;5054977;28;20273;-78
2021/05/01 02:52:37;;;;;;;9.27;8.07;;;8.70;99.90;;;;;;5054714;28;20820;-78
2021/05/01 02:55:05;;;;;;;9.00;7.27;;;8.80;99.90;;;;;;5054912;28;20284;-78
2021/05/01 02:57:31;;;;;;;11.13;8.57;;;8.70;99.90;;;;;;5057212;28;20208;-77
2021/05/01 03:00:02;;;;;;;11.50;7.77;;;8.80;99.90;;;;;;5055195;28;20563;-76
2021/05/01 03:02:28;;;;;;;9.73;7.70;;;8.80;99.90;;;;;;5054727;28;20239;-76
2021/05/01 03:04:55;;;;;;;9.30;8.30;;;8.80;99.90;;;;;;5054703;28;20204;-76
2021/05/01 03:07:22;;;;;;;8.83;7.97;;;8.80;99.90;;;;;;5054431;28;20204;-76
2021/05/01 03:09:48;;;;;;;13.67;8.70;;;8.80;99.90;;;;;;5054728;28;20428;-76
2021/05/01 03:12:14;;;;;;;9.30;8.30;;;8.80;99.90;;;;;;5054476;28;20261;-76
2021/05/01 03:14:40;;;;;;;11.13;9.20;;;8.80;99.90;;;;;;5054834;28;20223;-76
2021/05/01 03:17:07;;;;;;;10.87;8.60;;;8.80;99.90;;;;;;5054150;28;20232;-76
2021/05/01 03:19:33;;;;;;;13.67;9.00;;;8.70;99.90;;;;;;5054490;28;20219;-77
2021/05/01 03:22:00;;;;;;;14.27;8.73;;;8.80;99.90;;;;;;5054638;28;20238;-77
2021/05/01 03:24:26;;;;;;;10.50;9.13;;;8.80;99.90;;;;;;5054641;28;20204;-77
2021/05/01 03:26:52;;;;;;;13.13;9.70;;;8.80;99.90;;;;;;5054481;28;20211;-78
2021/05/01 03:29:18;;;;;;;12.07;8.63;;;8.70;99.90;;;;;;5054148;28;21014;-74
2021/05/01 03:31:44;;;;;;;10.13;8.07;;;8.70;99.90;;;;;;5054414;28;20641;-74
2021/05/01 03:34:10;;;;;;;11.50;9.33;;;8.70;99.90;;;;;;5054220;28;20231;-74
2021/05/01 03:36:37;;;;;;;13.33;9.90;;;8.70;99.90;;;;;;5053806;28;20624;-76
2021/05/01 03:39:04;;;;;;;11.37;8.37;;;8.70;99.90;;;;;;5054446;28;20216;-78
2021/05/01 03:41:31;;;;;;;10.90;8.63;;;8.70;99.90;;;;;;5054346;28;20239;-76
2021/05/01 03:43:57;;;;;;;13.43;8.30;;;8.80;99.90;;;;;;5054924;28;20212;-76
2021/05/01 03:46:23;;;;;;;11.67;9.03;;;8.80;99.90;;;;;;5054054;28;20207;-76
2021/05/01 03:48:49;;;;;;;11.93;8.73;;;8.80;99.90;;;;;;5054418;28;20252;-76
2021/05/01 03:51:15;;;;;;;9.20;8.17;;;8.80;99.90;;;;;;5050316;28;20322;-76
2021/05/01 03:53:41;;;;;;;10.57;8.97;;;8.80;99.90;;;;;;5050890;28;20824;-78
2021/05/01 03:56:08;;;;;;;10.23;8.53;;;8.80;99.90;;;;;;5050915;28;20211;-76
2021/05/01 03:58:34;;;;;;;10.90;9.03;;;8.80;99.90;;;;;;5051012;28;20980;-76
2021/05/01 04:01:00;;;;;;;9.77;8.87;;;8.80;99.90;;;;;;5050861;28;20228;-77
2021/05/01 04:03:26;;;;;;;11.67;9.97;;;8.80;99.90;;;;;;5050904;28;20623;-76
2021/05/01 04:05:53;;;;;;;10.00;9.10;;;8.80;99.90;;;;;;5050767;28;20211;-77
2021/05/01 04:08:19;;;;;;;10.73;9.00;;;8.80;99.90;;;;;;5050645;28;20212;-76
2021/05/01 04:10:45;;;;;;;10.47;9.13;;;8.80;99.90;;;;;;5050608;28;20204;-77
2021/05/01 04:13:12;;;;;;;10.17;9.07;;;8.80;99.90;;;;;;5050721;28;20215;-76
2021/05/01 04:15:38;;;;;;;10.70;9.20;;;8.70;99.90;;;;;;5051021;28;20204;-76
2021/05/01 04:18:04;;;;;;;10.47;8.87;;;8.70;99.90;;;;;;5050264;28;20240;-75
2021/05/01 04:20:31;;;;;;;9.77;8.80;;;8.70;99.90;;;;;;5050360;28;20224;-75
2021/05/01 04:22:57;;;;;;;10.30;9.27;;;8.70;99.90;;;;;;5050638;28;20236;-77
2021/05/01 04:25:23;;;;;;;10.77;9.27;;;8.70;99.90;;;;;;5050334;28;20553;-77
2021/05/01 04:27:49;;;;;;;11.40;8.87;;;8.70;99.90;;;;;;5050525;28;20552;-77
2021/05/01 04:30:17;;;;;;;11.60;9.23;;;8.70;99.90;;;;;;5050456;28;20215;-76
2021/05/01 04:32:44;;;;;;;10.90;9.70;;;8.70;99.90;;;;;;5050548;28;20213;-76
2021/05/01 04:35:10;;;;;;;11.80;8.67;;;8.70;99.90;;;;;;5050412;28;20212;-79
2021/05/01 04:37:37;;;;;;;10.33;8.70;;;8.70;99.90;;;;;;5050201;28;20729;-78
2021/05/01 04:40:04;;;;;;;9.90;8.90;;;8.80;99.90;;;;;;5050703;28;20211;-74
2021/05/01 04:42:30;;;;;;;12.40;9.23;;;8.80;99.90;;;;;;5049797;28;20244;-78
2021/05/01 04:44:56;;;;;;;12.03;9.00;;;8.80;99.90;;;;;;5050386;28;20223;-78
2021/05/01 04:47:24;;;;;;;12.93;9.77;;;8.80;99.90;;;;;;5050289;28;20594;-78
2021/05/01 04:49:50;;;;;;;10.77;8.97;;;8.80;99.90;;;;;;5050038;28;20610;-78
2021/05/01 04:52:16;;;;;;;9.50;8.60;;;8.80;99.90;;;;;;5049978;28;20757;-78
2021/05/01 04:54:42;;;;;;;11.80;8.63;;;8.90;99.90;;;;;;5050109;28;20277;-77
2021/05/01 04:57:08;;;;;;;10.50;9.37;;;8.90;99.90;;;;;;5050096;28;20204;-77
2021/05/01 04:59:34;;;;;;;10.00;9.00;;;8.90;99.90;;;;;;5050138;28;20235;-79
2021/05/01 05:02:00;;;;;;;10.40;9.37;;;8.90;99.90;;;;;;5049743;28;20232;-78
2021/05/01 05:04:27;;;;;;;10.37;9.27;;;8.90;99.90;;;;;;5049835;28;20208;-78
2021/05/01 05:06:53;;;;;;;10.43;9.00;;;8.90;99.90;;;;;;5049763;28;20223;-76
2021/05/01 05:09:19;;;;;;;11.43;9.63;;;8.90;99.90;;;;;;5049725;28;20244;-76
2021/05/01 05:11:46;;;;;;;12.13;9.83;;;8.90;99.90;;;;;;5049716;28;20212;-76
2021/05/01 05:14:12;;;;;;;11.93;9.80;;;8.90;99.90;;;;;;5049442;28;20573;-75
2021/05/01 05:16:38;;;;;;;10.43;9.30;;;8.90;99.90;;;;;;5049414;28;20207;-75
2021/05/01 05:19:04;;;;;;;12.13;9.47;;;8.90;99.90;;;;;;5049909;28;20192;-75
2021/05/01 05:21:31;;;;;;;10.77;9.67;;;8.90;99.90;;;;;;5049334;28;20299;-75
2021/05/01 05:23:57;;;;;;;10.97;9.80;;;8.90;99.90;;;;;;5049112;28;20689;-76
2021/05/01 05:26:23;;;;;;;10.57;9.47;;;8.90;99.90;;;;;;5049334;28;20203;-77
2021/05/01 05:28:49;;;;;;;12.27;10.27;;;8.90;99.90;;;;;;5054898;28;20580;-77
2021/05/01 05:31:16;;;;;;;10.50;9.03;;;8.90;99.90;;;;;;5049154;28;20261;-77
2021/05/01 05:33:42;;;;;;;10.90;9.80;;;9.00;99.90;;;;;;5049393;28;20207;-77
2021/05/01 05:36:08;;;;;;;10.47;9.27;;;9.00;99.90;;;;;;5049470;28;20212;-77
2021/05/01 05:38:35;;;;;;;10.57;9.47;;;9.00;99.90;;;;;;5049245;28;20210;-76
2021/05/01 05:41:01;;;;;;;13.87;10.30;;;9.00;99.90;;;;;;5048745;28;20843;-76
2021/05/01 05:43:28;;;;;;;12.57;9.40;;;8.90;99.90;;;;;;5048783;28;20235;-75
2021/05/01 05:45:54;;;;;;;10.53;9.53;;;9.00;99.90;;;;;;5048971;28;20200;-74
2021/05/01 05:48:22;;;;;;;13.87;10.17;;;9.00;99.90;;;;;;5061110;28;20211;-76
2021/05/01 05:50:48;;;;;;;10.97;9.73;;;9.00;99.90;;;;;;5069025;28;20249;-76
2021/05/01 05:53:14;;;;;;;11.10;9.90;;;9.10;99.90;;;;;;5068672;28;20242;-76
2021/05/01 05:55:41;;;;;;;10.80;9.70;;;9.10;99.90;;;;;;5068918;28;20203;-76
2021/05/01 05:58:08;;;;;;;10.23;9.23;;;9.10;99.90;;;;;;5068735;28;20208;-76
2021/05/01 06:00:34;;;;;;;11.47;10.27;;;9.10;99.90;;;;;;5068737;28;20678;-76
2021/05/01 06:03:00;;;;;;;10.93;9.83;;;9.20;99.90;;;;;;5068697;28;20247;-76
2021/05/01 06:05:29;;;;;;;11.90;10.17;;;9.20;99.90;;;;;;5068563;28;20207;-76
2021/05/01 06:07:57;;;;;;;11.30;9.73;;;9.20;99.90;;;;;;5068525;28;20211;-76
2021/05/01 06:10:24;;;;;;;11.00;9.63;;;9.20;99.90;;;;;;5068238;28;20215;-76
2021/05/01 06:12:53;;;;;;;11.37;10.37;;;9.30;99.90;;;;;;5068332;28;20207;-76
2021/05/01 06:15:19;;;;;;;10.80;9.70;;;9.30;99.90;;;;;;5068150;28;20207;-76
2021/05/01 06:17:47;;;;;;;12.33;10.57;;;9.30;99.90;;;;;;5068031;28;20745;-75
2021/05/01 06:20:15;;;;;;;11.70;10.50;;;9.30;99.90;;;;;;5059814;28;20690;-74
2021/05/01 06:22:42;;;;;;;11.77;10.53;;;9.30;99.90;;;;;;5059431;28;20235;-74
2021/05/01 06:25:10;;;;;;;11.63;10.27;;;9.30;99.90;;;;;;5054948;28;20285;-75
2021/05/01 06:27:37;;;;;;;11.90;10.73;;;9.30;99.90;;;;;;5058435;28;20245;-74
2021/05/01 06:30:05;;;;;;;11.07;9.87;;;9.30;99.90;;;;;;5053408;28;20545;-75
2021/05/01 06:32:31;;;;;;;10.80;9.67;;;9.40;99.90;;;;;;5053817;28;20605;-77
2021/05/01 06:35:00;;;;;;;13.70;11.03;;;9.40;99.90;;;;;;5056944;28;20939;-76
2021/05/01 06:37:27;;;;;;;13.13;11.03;;;9.40;99.90;;;;;;5058528;28;20685;-77
2021/05/01 06:39:57;;;;;;;12.13;10.23;;;9.40;99.90;;;;;;5050103;28;20545;-76
2021/05/01 06:42:25;;;;;;;12.00;10.57;;;9.50;99.90;;;;;;5046185;28;20243;-76
2021/05/01 06:44:56;;;;;;;13.03;10.50;;;9.60;99.90;;;;;;5049572;28;20581;-77
2021/05/01 06:47:25;;;;;;;11.07;9.97;;;9.60;99.90;;;;;;5065999;28;20806;-77
2021/05/01 06:49:59;;;;;;;11.17;9.97;;;9.60;99.90;;;;;;5049222;28;20219;-73
2021/05/01 06:52:25;;;;;;;13.50;12.10;;;9.70;99.90;;;;;;5065376;28;20609;-76
2021/05/01 06:54:53;;;;;;;12.17;11.00;;;9.70;99.90;;;;;;5046959;28;20269;-77
2021/05/01 06:57:23;;;;;;;15.20;11.90;;;9.80;99.90;;;;;;5053772;28;20208;-76
2021/05/01 06:59:53;;;;;;;13.20;11.50;;;9.80;99.90;;;;;;5047171;28;20281;-76
2021/05/01 07:02:28;;;;;;;13.03;11.53;;;9.80;99.90;;;;;;5046660;28;20702;-76
2021/05/01 07:04:55;;;;;;;14.10;11.93;;;9.80;99.90;;;;;;5056187;28;20665;-76
2021/05/01 07:07:22;;;;;;;12.27;10.93;;;9.80;99.90;;;;;;5049178;28;20305;-77
2021/05/01 07:09:49;;;;;;;15.37;11.87;;;9.80;99.90;;;;;;5054970;28;20206;-76
2021/05/01 07:12:17;;;;;;;12.87;11.47;;;9.80;99.90;;;;;;5054259;28;20571;-77
2021/05/01 07:14:44;;;;;;;12.23;10.93;;;9.80;99.90;;;;;;5065654;28;20214;-77
2021/05/01 07:17:12;;;;;;;12.30;11.07;;;9.80;99.90;;;;;;5064063;28;20308;-76
2021/05/01 07:19:39;;;;;;;13.63;11.67;;;9.70;99.90;;;;;;5053249;28;20211;-76
2021/05/01 07:22:06;;;;;;;13.60;12.13;;;9.80;99.90;;;;;;5061299;28;20280;-76
2021/05/01 07:24:32;;;;;;;15.50;11.83;;;9.70;99.90;;;;;;5066050;28;20215;-77
2021/05/01 07:27:00;;;;;;;17.33;11.17;;;9.70;99.90;;;;;;5069001;28;20204;-76
2021/05/01 07:29:28;;;;;;;12.97;11.43;;;9.70;99.90;;;;;;5069161;28;20218;-76
2021/05/01 07:31:56;;;;;;;13.53;11.57;;;9.70;99.90;;;;;;5066127;28;20196;-76
2021/05/01 07:34:22;;;;;;;12.17;10.63;;;9.80;99.90;;;;;;5062609;28;20286;-72
2021/05/01 07:36:53;;;;;;;14.07;11.17;;;9.70;99.90;;;;;;5055427;28;20204;-72
2021/05/01 07:39:20;;;;;;;13.43;10.97;;;9.80;99.90;;;;;;5051789;28;20199;-76
2021/05/01 07:41:55;;;;;;;13.23;11.47;;;9.90;99.90;;;;;;5059678;28;20644;-76
2021/05/01 07:44:24;;;;;;;12.47;11.00;;;9.90;99.90;;;;;;5057595;28;20192;-77
2021/05/01 07:46:51;;;;;;;12.60;11.33;;;9.80;99.90;;;;;;5058123;28;20721;-77
2021/05/01 07:49:17;;;;;;;13.23;11.90;;;9.80;99.90;;;;;;5066216;28;20207;-76
2021/05/01 07:51:44;;;;;;;14.10;10.93;;;9.80;99.90;;;;;;5068883;28;20211;-76
2021/05/01 07:54:11;;;;;;;17.60;12.40;;;9.90;99.90;;;;;;5068900;28;20211;-77
2021/05/01 07:56:37;;;;;;;13.73;11.70;;;9.90;99.90;;;;;;5068912;28;20231;-77
2021/05/01 07:59:05;;;;;;;14.17;11.73;;;9.90;99.90;;;;;;5054775;28;20203;-77
2021/05/01 08:01:31;;;;;;;15.30;12.03;;;10.10;99.90;;;;;;5057550;28;20250;-78
2021/05/01 08:03:57;;;;;;;13.07;11.67;;;10.20;99.90;;;;;;5068537;28;20203;-77
2021/05/01 08:06:27;;;;;;;13.50;12.13;;;10.20;99.90;;;;;;5060485;28;20226;-76
2021/05/01 08:08:54;;;;;;;13.50;11.77;;;10.30;99.90;;;;;;5049485;28;20572;-76
2021/05/01 08:11:21;;;;;;;13.00;11.47;;;10.40;99.90;;;;;;5049995;28;20204;-76
2021/05/01 08:13:47;;;;;;;13.43;12.07;;;10.40;99.90;;;;;;5050955;28;20200;-76
2021/05/01 08:16:14;;;;;;;13.03;11.57;;;10.50;99.90;;;;;;5051064;28;20667;-75
2021/05/01 08:18:40;;;;;;;12.00;10.27;;;10.50;99.90;;;;;;5050602;28;20240;-76
2021/05/01 08:21:06;;;;;;;13.20;11.83;;;10.60;99.90;;;;;;5050454;28;20200;-76
2021/05/01 08:23:33;;;;;;;13.43;12.13;;;10.70;99.90;;;;;;5050586;28;20211;-76
2021/05/01 08:26:00;;;;;;;15.43;12.43;;;10.70;99.90;;;;;;5050846;28;20211;-76
2021/05/01 08:28:27;;;;;;;17.73;12.07;;;10.60;99.90;;;;;;5050607;28;20690;-76
2021/05/01 08:30:53;;;;;;;13.97;11.90;;;10.60;99.90;;;;;;5050635;28;20208;-76
2021/05/01 08:33:19;;;;;;;15.27;12.07;;;10.60;99.90;;;;;;5050489;28;20272;-76
2021/05/01 08:35:45;;;;;;;13.30;11.90;;;10.60;99.90;;;;;;5050583;28;20208;-76
2021/05/01 08:38:12;;;;;;;13.10;11.77;;;10.60;99.90;;;;;;5049829;28;20204;-76
2021/05/01 08:40:38;;;;;;;13.47;12.07;;;10.60;99.90;;;;;;5050307;28;20212;-78
2021/05/01 08:43:04;;;;;;;13.37;11.97;;;10.50;99.90;;;;;;5050348;28;20228;-75
2021/05/01 08:45:32;;;;;;;16.03;12.17;;;10.40;99.90;;;;;;5050238;28;20212;-77
2021/05/01 08:48:00;;;;;;;14.23;12.20;;;10.50;99.90;;;;;;5050266;28;20208;-77
2021/05/01 08:50:40;;;;;;;13.23;11.83;;;10.60;99.90;;;;;;5050294;28;20212;-76
2021/05/01 08:53:08;;;;;;;12.87;11.53;;;10.80;99.90;;;;;;5049926;28;20670;-77
2021/05/01 08:55:37;;;;;;;13.07;11.20;;;10.80;99.90;;;;;;5050017;28;20212;-77
2021/05/01 08:58:05;;;;;;;12.00;10.80;;;10.90;99.90;;;;;;5049743;28;20254;-77
2021/05/01 09:00:32;;;;;;;12.93;11.63;;;11.10;99.90;;;;;;5049736;28;20209;-77
2021/05/01 09:03:02;;;;;;;13.13;11.73;;;11.20;99.90;;;;;;5049878;28;20289;-77
2021/05/01 09:05:28;;;;;;;13.93;12.23;;;11.40;99.90;;;;;;5049816;28;20555;-77
2021/05/01 09:07:56;;;;;;;13.37;11.27;;;11.50;99.90;;;;;;5049612;28;20667;-78
2021/05/01 09:10:23;;;;;;;13.10;11.50;;;11.60;99.90;;;;;;5049935;28;20215;-77
2021/05/01 09:12:50;;;;;;;12.87;11.63;;;11.80;99.90;;;;;;5049707;28;20212;-77
2021/05/01 09:15:20;;;;;;;11.57;10.43;;;11.80;99.90;;;;;;5049534;28;20666;-77
2021/05/01 09:17:48;;;;;;;11.43;10.40;;;11.80;99.90;;;;;;5049451;28;20232;-77
2021/05/01 09:20:15;;;;;;;11.53;10.40;;;12.00;99.90;;;;;;5049364;28;20211;-78
2021/05/01 09:22:55;;;;;;;14.13;11.20;;;12.10;99.90;;;;;;5049281;28;20228;-77
2021/05/01 09:25:22;;;;;;;11.43;10.03;;;12.20;99.90;;;;;;5049303;28;20227;-77
2021/05/01 09:28:03;;;;;;;11.70;10.53;;;12.30;99.90;;;;;;5049501;28;20261;-77
2021/05/01 09:30:30;;;;;;;13.20;10.87;;;12.50;99.90;;;;;;5049354;28;20199;-77
2021/05/01 09:33:25;;;;;;;11.73;10.53;;;12.70;99.90;;;;;;5049503;28;20200;-77
2021/05/01 09:35:57;;;;;;;11.00;10.00;;;12.90;99.90;;;;;;5049528;28;20196;-76
2021/05/01 09:38:24;;;;;;;11.73;10.53;;;13.00;99.90;;;;;;5049189;28;20580;-77
2021/05/01 09:40:51;;;;;;;10.83;9.83;;;13.00;99.90;;;;;;5049124;28;20285;-77
2021/05/01 09:43:17;;;;;;;10.43;9.53;;;12.80;99.90;;;;;;5049190;28;20609;-77
2021/05/01 09:45:44;;;;;;;10.07;9.17;;;12.60;99.90;;;;;;5049090;28;20204;-77
2021/05/01 09:48:15;;;;;;;10.50;9.60;;;12.60;99.90;;;;;;5048210;28;20215;-77
2021/05/01 09:50:43;;;;;;;10.10;9.10;;;12.50;99.90;;;;;;5048955;28;20208;-77
2021/05/01 09:53:12;;;;;;;10.77;9.67;;;12.50;99.90;;;;;;5048822;28;20586;-77
2021/05/01 09:55:52;;;;;;;10.27;9.27;;;12.40;99.90;;;;;;5048666;28;20204;-77
2021/05/01 09:58:23;;;;;;;9.53;8.80;;;12.30;99.90;;;;;;5048899;28;20242;-77
2021/05/01 10:00:51;;;;;;;9.77;8.87;;;12.30;99.90;;;;;;5048670;28;20467;-77
2021/05/01 10:03:25;;;;;;;10.40;9.00;;;12.30;99.90;;;;;;5058107;28;20234;-77
2021/05/01 10:05:55;;;;;;;10.27;9.17;;;12.20;99.90;;;;;;5068715;28;20302;-77
2021/05/01 10:08:25;;;;;;;10.23;8.67;;;12.20;99.90;;;;;;5068807;28;20211;-77
2021/05/01 10:10:52;;;;;;;8.80;8.00;;;12.20;99.90;;;;;;5068949;28;20199;-77
2021/05/01 10:13:19;;;;;;;8.90;8.00;;;12.20;99.90;;;;;;5068925;28;20317;-77
2021/05/01 10:15:45;;;;;;;8.60;7.80;;;12.20;99.90;;;;;;5068189;28;20666;-77
2021/05/01 10:18:13;;;;;;;8.87;8.07;;;12.30;99.90;;;;;;5068155;28;20239;-77
2021/05/01 10:20:42;;;;;;;9.30;7.73;;;12.30;99.90;;;;;;5068806;28;20269;-77
2021/05/01 10:23:10;;;;;;;8.50;7.80;;;12.30;99.90;;;;;;5068175;28;20262;-77
2021/05/01 10:25:36;;;;;;;8.33;7.63;;;12.40;99.90;;;;;;5068634;28;20257;-77
2021/05/01 10:28:05;;;;;;;8.17;7.47;;;12.40;99.90;;;;;;5068548;28;20203;-77
2021/05/01 10:30:35;;;;;;;7.33;6.73;;;12.40;99.90;;;;;;5068472;28;20302;-77
2021/05/01 10:33:12;;;;;;;7.53;6.83;;;12.50;99.90;;;;;;5068472;28;20207;-77
2021/05/01 10:35:39;;;;;;;6.90;6.30;;;12.40;99.90;;;;;;5068427;28;20188;-77
2021/05/01 10:38:08;;;;;;;7.53;6.83;;;12.40;99.90;;;;;;5068605;28;20235;-77
2021/05/01 10:40:47;;;;;;;8.13;7.30;;;12.40;99.90;;;;;;5067817;28;20250;-77
2021/05/01 10:43:18;;;;;;;7.80;7.10;;;12.50;99.90;;;;;;5068291;28;20738;-77
2021/05/01 10:45:56;;;;;;;7.90;7.20;;;12.50;99.90;;;;;;5068214;28;20191;-77
2021/05/01 10:48:24;;;;;;;8.00;7.20;;;12.60;99.90;;;;;;5068329;28;20191;-77
2021/05/01 10:51:05;;;;;;;7.93;7.33;;;12.60;99.90;;;;;;5068466;28;20208;-77
2021/05/01 10:53:32;;;;;;;8.27;6.70;;;12.70;99.90;;;;;;5068116;28;20195;-77
2021/05/01 10:55:59;;;;;;;8.27;7.53;;;12.80;99.90;;;;;;5068012;28;20214;-78
2021/05/01 10:58:31;;;;;;;6.87;6.27;;;12.80;99.90;;;;;;5068174;28;20211;-78
2021/05/01 11:00:57;;;;;;;7.17;6.57;;;12.80;99.90;;;;;;5071340;28;21075;-76
2021/05/01 11:03:25;;;;;;;7.40;6.70;;;12.80;99.90;;;;;;5072215;28;20230;-77
2021/05/01 11:05:53;;;;;;;7.03;6.43;;;12.90;99.90;;;;;;5071885;28;20548;-77
2021/05/01 11:08:30;;;;;;;7.17;6.57;;;12.90;99.90;;;;;;5071930;28;20705;-77
2021/05/01 11:10:57;;;;;;;7.50;6.80;;;12.90;99.90;;;;;;5072180;28;20191;-77
2021/05/01 11:13:26;;;;;;;7.73;7.03;;;12.90;99.90;;;;;;5072345;28;20207;-77
2021/05/01 11:15:56;;;;;;;7.00;6.43;;;12.80;99.90;;;;;;5072202;28;20249;-77
2021/05/01 11:18:25;;;;;;;8.47;6.97;;;12.70;99.90;;;;;;5072010;28;20234;-77
2021/05/01 11:20:53;;;;;;;7.70;7.10;;;12.60;99.90;;;;;;5071820;28;20407;-76
2021/05/01 11:23:22;;;;;;;7.60;6.97;;;12.60;99.90;;;;;;5072111;28;20400;-77
2021/05/01 11:25:49;;;;;;;7.90;7.20;;;12.60;99.90;;;;;;5071761;28;20204;-77
2021/05/01 11:28:19;;;;;;;7.20;6.60;;;12.60;99.90;;;;;;5071713;28;20199;-77
2021/05/01 11:30:47;;;;;;;6.97;6.30;;;12.60;99.90;;;;;;5071316;28;20577;-77
2021/05/01 11:33:18;;;;;;;7.47;6.63;;;12.60;99.90;;;;;;5071577;28;20210;-77
2021/05/01 11:35:44;;;;;;;7.07;6.47;;;12.60;99.90;;;;;;5071529;28;20192;-77
2021/05/01 11:38:26;;;;;;;7.80;7.20;;;12.60;99.90;;;;;;5071450;28;20216;-76
2021/05/01 11:40:55;;;;;;;7.10;6.50;;;12.60;99.90;;;;;;5071136;28;20643;-77
2021/05/01 11:43:29;;;;;;;7.63;6.77;;;12.60;99.90;;;;;;5070955;28;20616;-77
2021/05/01 11:46:10;;;;;;;7.03;6.53;;;12.60;99.90;;;;;;5071408;28;20218;-77
2021/05/01 11:48:44;;;;;;;7.40;6.67;;;12.50;99.90;;;;;;5071349;28;20229;-77
2021/05/01 11:51:15;;;;;;;7.53;6.63;;;12.50;99.90;;;;;;5071535;28;20202;-77
2021/05/01 11:53:44;;;;;;;7.20;6.60;;;12.50;99.90;;;;;;5071376;28;20206;-77
2021/05/01 11:56:23;;;;;;;7.90;7.20;;;12.50;99.90;;;;;;5071182;28;20211;-77
2021/05/01 11:58:49;;;;;;;7.07;6.53;;;12.50;99.90;;;;;;5071685;28;20203;-77
2021/05/01 12:01:18;;;;;;;7.80;7.10;;;12.40;99.90;;;;;;5071177;28;20257;-77
2021/05/01 12:03:55;;;;;;;6.70;6.10;;;12.40;99.90;;;;;;5071135;28;20231;-77
2021/05/01 12:06:26;;;;;;;6.90;6.40;;;12.40;99.90;;;;;;5071270;28;20195;-77
2021/05/01 12:08:52;;;;;;;6.90;6.30;;;12.30;99.90;;;;;;5070976;28;20551;-77
2021/05/01 12:11:20;;;;;;;7.07;6.47;;;12.30;99.90;;;;;;5069821;28;20208;-77
2021/05/01 12:13:48;;;;;;;7.10;6.50;;;12.40;99.90;;;;;;5070756;28;20212;-77
2021/05/01 12:16:20;;;;;;;6.83;6.17;;;12.30;99.90;;;;;;5070978;28;20226;-77
2021/05/01 12:18:48;;;;;;;6.63;6.03;;;12.30;99.90;;;;;;5070444;28;20270;-76
2021/05/01 12:21:16;;;;;;;8.30;6.07;;;12.30;99.90;;;;;;5070853;28;20203;-77
2021/05/01 12:23:43;;;;;;;7.93;6.27;;;12.40;99.90;;;;;;5070583;28;20267;-76
2021/05/01 12:26:35;;;;;;;6.90;6.40;;;12.50;99.90;;;;;;5070519;28;20932;-77
2021/05/01 12:29:26;;;;;;;8.13;6.30;;;12.50;99.90;;;;;;5070716;28;20277;-77
2021/05/01 12:31:54;;;;;;;8.97;6.47;;;12.70;99.90;;;;;;5070609;28;20207;-77
2021/05/01 12:34:22;;;;;;;6.73;6.17;;;12.80;99.90;;;;;;5071039;28;20207;-77
2021/05/01 12:36:50;;;;;;;6.03;5.63;;;12.90;99.90;;;;;;5070514;28;20208;-77
2021/05/01 12:39:18;;;;;;;6.80;6.20;;;13.00;99.90;;;;;;5070379;28;20203;-77
2021/05/01 12:41:46;;;;;;;6.90;6.40;;;13.10;99.90;;;;;;5070090;28;20591;-77
2021/05/01 12:44:31;;;;;;;6.50;6.00;;;13.20;99.90;;;;;;5070017;28;20662;-77
2021/05/01 12:46:59;;;;;;;7.20;6.57;;;13.30;99.90;;;;;;5070359;28;20188;-77
2021/05/01 12:49:30;;;;;;;6.67;6.10;;;13.40;99.90;;;;;;5070187;28;20204;-77